Airfield :
LOGIN :

Register | Disclaimer

   EN    FR    IT 

 










Legend :    VFR   Marginal VFR   IFR   Intensive IFR   Very Intensive IFR
Visi :
Ceiling :
>= 8 km
>= 3000ft
5 to 8 km
1000 to 3000 ft
1500m to 5 km
500 to 1000 ft
800 to 1500m
200 to 500 ft
< 800m
< 200 ft
Symbols :   Thunderstorms  Fog  Heavy snow  Heavy precipitations  Wind > 20 kt
SIGMETs :     Misc.  Thunderstorms  Icing  Turbulence  Mountain Waves  Volcanic Ashes






- Airport Elevation : 17 ft
- IATA code : CPH


EKCH - København - Kastrup (Copenhagen)

CURRENT METAR :
  • 040750Z AUTO 30008KT 260V360 9999 FEW026/// 17/10 Q1013 NOSIG

EXPIRED METARs :
  • 040720Z AUTO 31009KT 9999 NCD 17/10 Q1013 NOSIG
  • 040650Z AUTO 30007KT 270V010 9999 NCD 16/09 Q1013 NOSIG
  • 040620Z AUTO 30007KT 250V340 9999 NCD 16/10 Q1013 NOSIG
  • 040550Z AUTO 31008KT 9999 NCD 15/10 Q1013 NOSIG
  • 040520Z AUTO 30005KT 270V020 9999 NCD 15/11 Q1013 NOSIG
  • 040450Z AUTO 31004KT 9999 NCD 14/10 Q1013 NOSIG

TAF TAF EKCH
Valid from the 04 at 06:00 until the 05 at 06:00 UTC


040509Z 0406/0506 32010KT 9999 SCT035
BECMG 0418/0421 26006KT
BECMG 0503/0506 20010KT



MET'MAP, your aeronautical weather chart ! - Copyright ORBIFLY December 2007 - Disclaimer

ORBIFLY MET'MAP TEAM :

Programming & Development : Alexandra Zaïnal
Concept & original design : Baudouin d'Aumeries
Assistance for programming : Marc-Olivier Méhu
Technical & hardware support : Manuel Goepfert

Contact : metmap@orbifly.com




SOURCES & CREDITS :

   NOAA